Exeter, New Hampshire
Current Conditions -  °F | °C
As of 3:36 AM on Thursday 18 Dec 2014 (Local Time) from KPSM Reporting Station
Light Rain Light Rain  
Wind Chill:   Ceiling: 2300
Heat Index:   Visibility: 10mi
Dew Point:   Wind: 14mph
Humidity: 81%   Direction: 270°W
Pressure: 29.66"   Gusts: NA
Location:  42.98°N, 70.95°W
Report Text: KPSM 180836Z 27012KT 10SM -RA FEW007 BKN023 OVC035 04/01 A2966 RMK AO2A
Loading
Personal Weather Stations






























Interactive Weather Map New forecast layout! Learn more

10-Day Weather Forecast

Advertisements
Track Severe Weather on mobile